アンカレッジ/テッド・スティーブンス の空港の天気 - METARとTAF

テッド・スティーブンス・アンカレッジ国際空港 ( PANC / ANC ) - アメリカ アラスカ州アンカレッジ
飛行場実況気象(Metar)
観測時間10/15 23:53 AKDT (10/16 07:53 UTC)
風向・風速北東 3m/s
視程10km以上
天気現象
全天の4割程度の雲 雲底高度 1220m
全天を覆う雲 雲底高度 1830m
気温3.3℃
湿度50%
気圧992.9hPa
METARPANC 160753Z 05005KT 10SM SCT040 OVC060 03/M06 A2932 RMK AO2 SLP929 T00331061
過去の天気等 Google飛行場航空写真 Wunderground天気予報

過去48時間のMETAR

飛行場予報(TAF)
発表時間: 10/15 21:24 AKDT (10/16 05:24 UTC)
予報対象時間: 15日22時 AKDT ~ 17日4時 AKDT
風向・風速北 3m/s
視程10km以上
全天の8割程度の雲 雲底高度 1370m
全天を覆う雲 雲底高度 1830m
16日0時 AKDT から
風向・風速北 3m/s
視程10km以上
天気現象周辺でしゅう雨
全天を覆う雲 雲底高度 1220m
16日2時 AKDT から
風向・風速北 3m/s
視程10km以上
天気現象弱い雪
全天の8割程度の雲 雲底高度 760m
全天を覆う雲 雲底高度 1220m
16日12時 AKDT から
風向・風速北 3m/s
視程10km以上
天気現象周辺でしゅう雨
全天を覆う雲 雲底高度 1830m
PANC 160524Z 1606/1712 36006KT P6SM BKN045 OVC060
FM160800 36006KT P6SM VCSH OVC040
FM161000 01006KT 6SM -SN BKN025 OVC040
FM162000 01005KT P6SM VCSH OVC060